Forside
METAR-TAF:

METAR-TAF

Lufthavne :

Branch County Memorial Airport

Coldwater, Michigan, USA

Breddekreds: 41-56N, længdekreds: 085-03-09W, højde: 292 m

Aktuelle vejr

Denne rapport blev lavet for 6 minutter siden, kl. 21:16 UTC
Vind 10 kt fra vest
Temperatur 0°C
Fugtighed 100%
Tryk 1010 hPa
Sigt: 11.3 km
Overskyet i en højde af 700 ft

METAR: KOEB 262116Z AUTO 26010KT 7SM OVC007 00/00 A2983 RMK AO2 T00000000

Tid: 16:22 (21:22 UTC)


TAF: fraværende

Vejrobservationer og prognoser fra mere end 4000 lufthavne (METAR og TAF).

De gule og røde prikker repræsenterer de meteorologiske stationer.

Flyt musen over at se navnet på stationen.

Så klik over at se vejr observationer og prognoser.

At skifte det kort: Klik på de grønne knapper med et sort kors for at zoome ind; på den grønne knap med en bindestreg for at zoome ud; eller på de grønne pile for tilstødende kort.


METAR-TAF: